CEB321 RPLL-RPLK
Flight info
| Callsign | CEB321 |
|---|---|
| Flight time | 0h 27m |
| Altitude | 23000 |
| Route | TIMON2R TIMON W15 RAGAY RAGAY1B |
| Aircraft | A20N/M-V/N |
Departure
| Time | 2026-04-21 05:55 |
|---|---|
| Airport | Ninoy Aquino International Airport (RPLL) |
Arrival
| Time | 2026-04-21 06:23 |
|---|---|
| Airport | Bicol International Airport (RPLK) |
| Time | Latitude | Longitude | Altitude | Speed | Heading |
|---|---|---|---|---|---|
| 2026-04-21 05:31 | 14.51569 | 121.01616 | 82 ft | 0 kts | 44° |
| 2026-04-21 05:43 | 14.51566 | 121.01614 | 82 ft | 2 kts | 44° |
| 2026-04-21 05:44 | 14.51556 | 121.01603 | 82 ft | 2 kts | 43° |
| 2026-04-21 05:44 | 14.51537 | 121.01585 | 82 ft | 2 kts | 43° |
| 2026-04-21 05:44 | 14.51526 | 121.01574 | 82 ft | 2 kts | 52° |
| 2026-04-21 05:45 | 14.51519 | 121.01560 | 82 ft | 2 kts | 73° |
| 2026-04-21 05:45 | 14.51516 | 121.01546 | 82 ft | 2 kts | 90° |
| 2026-04-21 05:45 | 14.51519 | 121.01530 | 82 ft | 2 kts | 109° |
| 2026-04-21 05:45 | 14.51525 | 121.01516 | 82 ft | 2 kts | 128° |
| 2026-04-21 05:46 | 14.51530 | 121.01511 | 82 ft | 1 kts | 137° |
| 2026-04-21 05:46 | 14.51533 | 121.01508 | 82 ft | 0 kts | 134° |
| 2026-04-21 05:49 | 14.51530 | 121.01511 | 82 ft | 1 kts | 134° |
| 2026-04-21 05:50 | 14.51513 | 121.01529 | 82 ft | 6 kts | 134° |
| 2026-04-21 05:50 | 14.51475 | 121.01570 | 82 ft | 8 kts | 134° |
| 2026-04-21 05:50 | 14.51422 | 121.01625 | 82 ft | 14 kts | 135° |
| 2026-04-21 05:50 | 14.51337 | 121.01713 | 82 ft | 20 kts | 135° |
| 2026-04-21 05:51 | 14.51225 | 121.01829 | 82 ft | 23 kts | 136° |
| 2026-04-21 05:51 | 14.51139 | 121.01917 | 82 ft | 15 kts | 136° |
| 2026-04-21 05:51 | 14.51076 | 121.01981 | 82 ft | 0 kts | 137° |
| 2026-04-21 05:51 | 14.51067 | 121.01990 | 82 ft | 5 kts | 145° |
| 2026-04-21 05:52 | 14.51023 | 121.01952 | 82 ft | 15 kts | 238° |
| 2026-04-21 05:52 | 14.50949 | 121.01822 | 82 ft | 26 kts | 241° |
| 2026-04-21 05:52 | 14.50828 | 121.01604 | 82 ft | 42 kts | 239° |
| 2026-04-21 05:52 | 14.50676 | 121.01334 | 82 ft | 41 kts | 239° |
| 2026-04-21 05:53 | 14.50539 | 121.01084 | 82 ft | 38 kts | 240° |
| 2026-04-21 05:53 | 14.50410 | 121.00852 | 82 ft | 35 kts | 244° |
| 2026-04-21 05:53 | 14.50295 | 121.00650 | 82 ft | 29 kts | 245° |
| 2026-04-21 05:53 | 14.50197 | 121.00468 | 82 ft | 28 kts | 240° |
| 2026-04-21 05:54 | 14.50132 | 121.00364 | 82 ft | 9 kts | 207° |
| 2026-04-21 05:54 | 14.50066 | 121.00384 | 82 ft | 10 kts | 151° |
| 2026-04-21 05:54 | 14.50021 | 121.00438 | 82 ft | 10 kts | 78° |
| 2026-04-21 05:54 | 14.50098 | 121.00579 | 82 ft | 53 kts | 60° |
| 2026-04-21 05:55 | 14.50398 | 121.01129 | 82 ft | 121 kts | 63° |
| 2026-04-21 05:55 | 14.50919 | 121.02053 | 178 ft | 166 kts | 63° |
| 2026-04-21 05:55 | 14.51515 | 121.03095 | 767 ft | 168 kts | 63° |
| 2026-04-21 05:55 | 14.52067 | 121.04101 | 1591 ft | 160 kts | 64° |
| 2026-04-21 05:56 | 14.52612 | 121.05096 | 2186 ft | 163 kts | 64° |
| 2026-04-21 05:56 | 14.53202 | 121.06181 | 2561 ft | 180 kts | 63° |
| 2026-04-21 05:56 | 14.53854 | 121.07370 | 2884 ft | 202 kts | 62° |
| 2026-04-21 05:56 | 14.54595 | 121.08710 | 3336 ft | 221 kts | 62° |
| 2026-04-21 05:57 | 14.55395 | 121.10149 | 3798 ft | 238 kts | 62° |
| 2026-04-21 05:57 | 14.56257 | 121.11704 | 4255 ft | 257 kts | 62° |
| 2026-04-21 05:57 | 14.57005 | 121.13358 | 4884 ft | 265 kts | 72° |
| 2026-04-21 05:57 | 14.57431 | 121.15221 | 5710 ft | 268 kts | 82° |
| 2026-04-21 05:58 | 14.57663 | 121.17091 | 6534 ft | 272 kts | 83° |
| 2026-04-21 05:58 | 14.57874 | 121.19016 | 7384 ft | 275 kts | 84° |
| 2026-04-21 05:58 | 14.58089 | 121.20986 | 8264 ft | 278 kts | 83° |
| 2026-04-21 05:58 | 14.58311 | 121.22973 | 9137 ft | 281 kts | 83° |
| 2026-04-21 05:59 | 14.58301 | 121.24978 | 9936 ft | 286 kts | 101° |
| 2026-04-21 05:59 | 14.57505 | 121.26896 | 10588 ft | 298 kts | 123° |
| 2026-04-21 05:59 | 14.55971 | 121.28436 | 11030 ft | 318 kts | 141° |
| 2026-04-21 06:00 | 14.52191 | 121.31269 | 11946 ft | 348 kts | 142° |
| 2026-04-21 06:00 | 14.50232 | 121.32746 | 12645 ft | 352 kts | 141° |
| 2026-04-21 06:00 | 14.48240 | 121.34259 | 13347 ft | 356 kts | 142° |
| 2026-04-21 06:00 | 14.46232 | 121.35794 | 14009 ft | 360 kts | 142° |
| 2026-04-21 06:01 | 14.44204 | 121.37347 | 14672 ft | 363 kts | 142° |
| 2026-04-21 06:01 | 14.42176 | 121.38901 | 15296 ft | 367 kts | 142° |
| 2026-04-21 06:01 | 14.40093 | 121.40496 | 15884 ft | 370 kts | 143° |
| 2026-04-21 06:01 | 14.38024 | 121.42082 | 16451 ft | 373 kts | 143° |
| 2026-04-21 06:02 | 14.35940 | 121.43680 | 17055 ft | 376 kts | 143° |
| 2026-04-21 06:02 | 14.33810 | 121.45311 | 17617 ft | 379 kts | 143° |
| 2026-04-21 06:02 | 14.31678 | 121.46942 | 18175 ft | 381 kts | 144° |
| 2026-04-21 06:02 | 14.29549 | 121.48570 | 18729 ft | 384 kts | 144° |
| 2026-04-21 06:03 | 14.27387 | 121.50224 | 19287 ft | 387 kts | 144° |
| 2026-04-21 06:03 | 14.25204 | 121.51888 | 19806 ft | 390 kts | 144° |
| 2026-04-21 06:03 | 14.23017 | 121.53553 | 20340 ft | 392 kts | 144° |
| 2026-04-21 06:03 | 14.20799 | 121.55242 | 20873 ft | 395 kts | 144° |
| 2026-04-21 06:04 | 14.18568 | 121.56942 | 21384 ft | 398 kts | 144° |
| 2026-04-21 06:04 | 14.16310 | 121.58662 | 21899 ft | 401 kts | 144° |
| 2026-04-21 06:04 | 14.14044 | 121.60387 | 22402 ft | 404 kts | 144° |
| 2026-04-21 06:04 | 14.11809 | 121.62170 | 22795 ft | 408 kts | 138° |
| 2026-04-21 06:05 | 14.10038 | 121.64448 | 22916 ft | 412 kts | 120° |
| 2026-04-21 06:05 | 14.08998 | 121.67209 | 22918 ft | 413 kts | 103° |
| 2026-04-21 06:05 | 14.08550 | 121.70092 | 22924 ft | 413 kts | 98° |
| 2026-04-21 06:05 | 14.08174 | 121.73013 | 22918 ft | 412 kts | 98° |
| 2026-04-21 06:06 | 14.07794 | 121.75950 | 22916 ft | 412 kts | 99° |
| 2026-04-21 06:06 | 14.07400 | 121.78867 | 22915 ft | 412 kts | 99° |
| 2026-04-21 06:06 | 14.06993 | 121.81789 | 22909 ft | 412 kts | 99° |
| 2026-04-21 06:06 | 14.06582 | 121.84683 | 22901 ft | 412 kts | 99° |
| 2026-04-21 06:07 | 14.06164 | 121.87598 | 22896 ft | 412 kts | 99° |
| 2026-04-21 06:07 | 14.05734 | 121.90539 | 22888 ft | 412 kts | 101° |
| 2026-04-21 06:07 | 14.05087 | 121.93396 | 22879 ft | 411 kts | 108° |
| 2026-04-21 06:07 | 14.04116 | 121.96152 | 22876 ft | 410 kts | 114° |
| 2026-04-21 06:08 | 14.02871 | 121.98806 | 22874 ft | 409 kts | 118° |
| 2026-04-21 06:08 | 14.01564 | 122.01403 | 22866 ft | 409 kts | 118° |
| 2026-04-21 06:08 | 14.00235 | 122.04025 | 22860 ft | 409 kts | 118° |
| 2026-04-21 06:08 | 13.98920 | 122.06632 | 22858 ft | 409 kts | 118° |
| 2026-04-21 06:09 | 13.97627 | 122.09207 | 22856 ft | 409 kts | 118° |
| 2026-04-21 06:09 | 13.93719 | 122.17018 | 22861 ft | 408 kts | 118° |
| 2026-04-21 06:09 | 13.74698 | 122.54936 | 22881 ft | 409 kts | 118° |
| 2026-04-21 06:09 | 13.73320 | 122.57503 | 22728 ft | 409 kts | 122° |
| 2026-04-21 06:10 | 13.71801 | 122.59946 | 22398 ft | 406 kts | 126° |
| 2026-04-21 06:10 | 13.70134 | 122.62311 | 22095 ft | 404 kts | 128° |
| 2026-04-21 06:10 | 13.68472 | 122.64598 | 21700 ft | 401 kts | 128° |
| 2026-04-21 06:10 | 13.66793 | 122.66900 | 21241 ft | 398 kts | 128° |
| 2026-04-21 06:11 | 13.65157 | 122.69147 | 20769 ft | 396 kts | 128° |
| 2026-04-21 06:11 | 13.63502 | 122.71422 | 20278 ft | 393 kts | 128° |
| 2026-04-21 06:11 | 13.61875 | 122.73659 | 19789 ft | 391 kts | 128° |
| 2026-04-21 06:11 | 13.50618 | 122.89143 | 16968 ft | 387 kts | 127° |
| 2026-04-21 06:12 | 13.36427 | 123.08596 | 14464 ft | 378 kts | 126° |
| 2026-04-21 06:12 | 13.34857 | 123.10766 | 14021 ft | 372 kts | 126° |
| 2026-04-21 06:12 | 13.33320 | 123.12891 | 13564 ft | 367 kts | 126° |
| 2026-04-21 06:12 | 13.31786 | 123.15002 | 13051 ft | 364 kts | 126° |
| 2026-04-21 06:13 | 13.30278 | 123.17069 | 12680 ft | 356 kts | 126° |
| 2026-04-21 06:13 | 13.28799 | 123.19092 | 12322 ft | 349 kts | 126° |
| 2026-04-21 06:13 | 13.27328 | 123.21048 | 11970 ft | 342 kts | 129° |
| 2026-04-21 06:13 | 13.25745 | 123.22828 | 11598 ft | 337 kts | 132° |
| 2026-04-21 06:14 | 13.24123 | 123.24540 | 11222 ft | 331 kts | 133° |
| 2026-04-21 06:14 | 13.22529 | 123.26208 | 10712 ft | 324 kts | 133° |
| 2026-04-21 06:14 | 13.20972 | 123.27840 | 10056 ft | 314 kts | 132° |
| 2026-04-21 06:14 | 13.19477 | 123.29407 | 9661 ft | 296 kts | 132° |
| 2026-04-21 06:15 | 13.18086 | 123.30869 | 9333 ft | 278 kts | 132° |
| 2026-04-21 06:15 | 13.16758 | 123.32266 | 9033 ft | 261 kts | 131° |
| 2026-04-21 06:15 | 13.15514 | 123.33579 | 8588 ft | 254 kts | 131° |
| 2026-04-21 06:15 | 13.14296 | 123.34864 | 8034 ft | 252 kts | 131° |
| 2026-04-21 06:16 | 13.13072 | 123.36156 | 7471 ft | 249 kts | 131° |
| 2026-04-21 06:16 | 13.08978 | 123.40469 | 5571 ft | 247 kts | 131° |
| 2026-04-21 06:16 | 13.07786 | 123.41722 | 5078 ft | 241 kts | 131° |
| 2026-04-21 06:16 | 13.06629 | 123.42937 | 4564 ft | 237 kts | 131° |
| 2026-04-21 06:17 | 13.05472 | 123.44154 | 4024 ft | 235 kts | 130° |
| 2026-04-21 06:17 | 13.04342 | 123.45342 | 3689 ft | 231 kts | 130° |
| 2026-04-21 06:17 | 13.03218 | 123.46529 | 3558 ft | 233 kts | 131° |
| 2026-04-21 06:17 | 13.02058 | 123.47752 | 3427 ft | 241 kts | 131° |
| 2026-04-21 06:18 | 13.00906 | 123.48959 | 3395 ft | 226 kts | 130° |
| 2026-04-21 06:18 | 12.99834 | 123.50082 | 3383 ft | 215 kts | 131° |
| 2026-04-21 06:18 | 12.98835 | 123.51221 | 3370 ft | 212 kts | 116° |
| 2026-04-21 06:18 | 12.98481 | 123.52641 | 3343 ft | 207 kts | 83° |
| 2026-04-21 06:19 | 12.98953 | 123.54021 | 3310 ft | 207 kts | 59° |
| 2026-04-21 06:19 | 12.99842 | 123.55212 | 3260 ft | 206 kts | 50° |
| 2026-04-21 06:19 | 13.00806 | 123.56267 | 3089 ft | 201 kts | 48° |
| 2026-04-21 06:19 | 13.01789 | 123.57315 | 2817 ft | 200 kts | 48° |
| 2026-04-21 06:20 | 13.02718 | 123.58324 | 2546 ft | 189 kts | 49° |
| 2026-04-21 06:20 | 13.03599 | 123.59296 | 2330 ft | 183 kts | 49° |
| 2026-04-21 06:20 | 13.04432 | 123.60220 | 2096 ft | 172 kts | 49° |
| 2026-04-21 06:20 | 13.05239 | 123.61115 | 1824 ft | 163 kts | 49° |
| 2026-04-21 06:21 | 13.05982 | 123.61938 | 1622 ft | 151 kts | 49° |
| 2026-04-21 06:21 | 13.06669 | 123.62697 | 1441 ft | 139 kts | 50° |
| 2026-04-21 06:21 | 13.07325 | 123.63422 | 1260 ft | 137 kts | 50° |
| 2026-04-21 06:21 | 13.07966 | 123.64131 | 1085 ft | 134 kts | 50° |
| 2026-04-21 06:22 | 13.08593 | 123.64822 | 902 ft | 129 kts | 50° |
| 2026-04-21 06:22 | 13.09215 | 123.65509 | 733 ft | 128 kts | 50° |
| 2026-04-21 06:22 | 13.09822 | 123.66175 | 559 ft | 127 kts | 50° |
| 2026-04-21 06:22 | 13.10433 | 123.66845 | 386 ft | 126 kts | 49° |
| 2026-04-21 06:23 | 13.11007 | 123.67484 | 327 ft | 104 kts | 48° |
| 2026-04-21 06:23 | 13.11309 | 123.67815 | 327 ft | 35 kts | 45° |
| 2026-04-21 06:23 | 13.11453 | 123.67969 | 327 ft | 13 kts | 49° |
| 2026-04-21 06:23 | 13.11467 | 123.68029 | 327 ft | 7 kts | 116° |
| 2026-04-21 06:24 | 13.11423 | 123.68071 | 327 ft | 9 kts | 136° |
| 2026-04-21 06:24 | 13.11384 | 123.68102 | 327 ft | 5 kts | 163° |
| 2026-04-21 06:24 | 13.11346 | 123.68088 | 327 ft | 5 kts | 227° |
| 2026-04-21 06:24 | 13.11312 | 123.68057 | 327 ft | 7 kts | 196° |
| 2026-04-21 06:25 | 13.11271 | 123.68079 | 327 ft | 6 kts | 137° |
| 2026-04-21 06:25 | 13.11248 | 123.68102 | 327 ft | 1 kts | 137° |
| 2026-04-21 06:25 | 13.11247 | 123.68103 | 327 ft | 0 kts | 136° |